Somerset, Texas
Current Conditions -  °F | °C
As of 7:03 PM on Sunday 21 Dec 2014 (Local Time) from KSKF Reporting Station
Overcast Overcast  
Wind Chill: 55°   Ceiling: 1700
Heat Index: 55°   Visibility: 10mi
Dew Point: 52°   Wind: 5mph
Humidity: 88%   Direction: 190°S
Pressure: 29.88"   Gusts: NA
Location:  29.23°N, 98.66°W
Report Text: KSKF 220103Z AUTO 19004KT 10SM SCT011 OVC017 13/11 A2988 RMK AO2 CIG 011V017 $
Loading
Personal Weather Stations






























Interactive Weather Map New forecast layout! Learn more

10-Day Weather Forecast

Advertisements
Track Severe Weather on mobile